Northbrook, Illinois
Current Conditions -  °F | °C
As of 3:52 AM on Saturday 22 Nov 2014 (Local Time) from KPWK Reporting Station
Light Rain Light Rain  
Wind Chill: 25°   Ceiling: 700
Heat Index: 33°   Visibility: 3mi
Dew Point: 31°   Wind: 10mph
Humidity: 92%   Direction: 210°SSW
Pressure: 30.08"   Gusts: NA
Location:  42.13°N, 87.83°W
Report Text: KPWK 220952Z AUTO 21009KT 3SM -RA BR OVC007 01/M01 A3008 RMK AO2 UPE0855RAB0855 SLP194 P0006 T00061006
Loading
Personal Weather Stations






























Interactive Weather Map New forecast layout! Learn more

10-Day Weather Forecast

Advertisements
Track Severe Weather on mobile